Time;durP1;ratioP1;P1;durP2;ratioP2;P2;SDS_P1;SDS_P2;PMS_P1;PMS_P2;Temp;Humidity;BMP_temperature;BMP_pressure;BME280_temperature;BME280_humidity;BME280_pressure;Samples;Min_cycle;Max_cycle;Signal;HPM_P1;HPM_P2
2021/12/17 00:06:57;;;;;;;;;16.25;16.25;;;;;20.96;36.99;103201.78;5057066;28;45273;-51
2021/12/17 00:09:23;;;;;;;;;18.00;16.00;;;;;20.94;36.70;103193.94;5056636;28;46540;-54
2021/12/17 00:11:49;;;;;;;;;17.00;15.00;;;;;20.94;37.22;103195.72;5056410;28;45749;-51
2021/12/17 00:14:24;;;;;;;;;17.75;15.50;;;;;20.93;37.04;103199.25;5056754;28;45325;-52
2021/12/17 00:16:50;;;;;;;;;18.75;16.25;;;;;20.92;36.63;103195.72;5057030;28;45508;-53
2021/12/17 00:19:25;;;;;;;;;20.75;14.00;;;;;20.92;36.92;103190.44;5056513;28;46409;-53
2021/12/17 00:48:57;;;;;;;;;15.75;15.50;;;;;21.34;37.19;103189.59;5056702;28;45339;-55
2021/12/17 00:54:28;;;;;;;;;16.75;14.25;;;;;21.41;36.64;103182.44;5056033;28;45989;-54
2021/12/17 00:56:55;;;;;;;;;17.75;14.50;;;;;21.46;36.79;103172.63;5056020;28;45324;-53
2021/12/17 00:59:22;;;;;;;;;17.75;15.25;;;;;21.49;36.48;103177.84;5056101;28;45485;-51
2021/12/17 01:01:49;;;;;;;;;16.50;14.50;;;;;21.52;36.79;103172.50;5056039;28;46336;-53
2021/12/17 01:04:15;;;;;;;;;13.25;12.75;;;;;21.54;36.33;103167.19;5059520;28;45387;-56
2021/12/17 01:06:41;;;;;;;;;16.25;16.25;;;;;21.57;36.55;103170.59;5059359;28;45411;-55
2021/12/17 01:09:09;;;;;;;;;15.00;12.25;;;;;21.59;36.81;103168.84;5041664;28;45637;-50
2021/12/17 01:11:35;;;;;;;;;20.50;16.25;;;;;21.59;36.68;103168.84;5059025;28;46314;-52
2021/12/17 01:14:01;;;;;;;;;15.25;14.25;;;;;21.63;36.97;103172.28;5059777;28;45778;-50
2021/12/17 01:16:27;;;;;;;;;13.00;13.00;;;;;21.62;36.94;103168.78;5059379;28;45347;-49
2021/12/17 01:21:29;;;;;;;;;12.50;12.25;;;;;21.64;36.73;103171.38;5059114;28;46073;-53
2021/12/17 01:24:14;;;;;;;;;15.75;14.50;;;;;21.66;36.63;103172.22;5059107;28;45386;-47
2021/12/17 01:43:12;;;;;;;;;12.25;12.00;;;;;21.65;36.70;103162.56;5058759;28;45857;-54
2021/12/17 01:45:39;;;;;;;;;14.75;13.25;;;;;21.65;36.41;103166.97;5058756;28;45185;-53
2021/12/17 01:48:12;;;;;;;;;16.50;14.25;;;;;21.64;36.46;103166.09;5058816;28;45273;-51
2021/12/17 02:01:17;;;;;;;;;17.25;13.75;;;;;21.61;36.65;103164.41;5058711;28;45297;-49
2021/12/17 02:03:43;;;;;;;;;13.25;12.50;;;;;21.59;36.76;103163.56;5058292;28;46131;-45
2021/12/17 02:06:08;;;;;;;;;16.75;15.00;;;;;21.59;36.58;103165.34;5058517;28;45350;-46
2021/12/17 02:08:35;;;;;;;;;16.00;15.25;;;;;21.57;36.42;103161.84;5058763;28;45434;-52
2021/12/17 02:32:17;;;;;;;;;20.00;16.00;;;;;21.46;36.60;103162.06;5058388;28;45285;-50
2021/12/17 02:37:16;;;;;;;;;14.25;11.75;;;;;21.43;36.80;103163.00;5058134;28;45443;-54
2021/12/17 02:42:39;;;;;;;;;12.00;12.00;;;;;21.42;36.35;103160.41;5058096;28;45348;-56
2021/12/17 02:47:58;;;;;;;;;15.50;14.25;;;;;21.40;36.51;103146.38;5057780;28;46275;-51
2021/12/17 02:50:24;;;;;;;;;12.75;12.75;;;;;21.37;36.58;103149.97;5057627;28;45367;-49
2021/12/17 02:52:53;;;;;;;;;15.75;12.50;;;;;21.39;36.39;103152.56;5057940;28;45330;-53
2021/12/17 02:55:20;;;;;;;;;14.00;14.00;;;;;21.34;36.58;103147.41;5057551;28;46142;-55
2021/12/17 02:57:46;;;;;;;;;16.50;13.75;;;;;21.35;36.70;103148.25;5057557;28;45947;-50
2021/12/17 03:00:12;;;;;;;;;11.50;11.50;;;;;21.31;36.53;103145.69;5057707;28;45220;-55
2021/12/17 03:02:39;;;;;;;;;13.50;13.50;;;;;21.33;36.78;103145.66;5058236;28;45253;-50
2021/12/17 03:05:05;;;;;;;;;14.25;12.25;;;;;21.33;36.55;103150.06;5057722;28;46367;-53
2021/12/17 03:07:35;;;;;;;;;14.00;12.00;;;;;21.30;36.55;103145.72;5057576;28;45629;-51
2021/12/17 03:10:03;;;;;;;;;13.50;13.50;;;;;21.29;36.89;103139.59;5057463;28;45303;-55
2021/12/17 03:12:37;;;;;;;;;15.00;13.50;;;;;21.29;37.00;103143.97;5057747;28;45217;-52
2021/12/17 03:25:32;;;;;;;;;11.75;11.00;;;;;21.23;36.43;103131.78;5055998;28;45249;-52
2021/12/17 03:27:58;;;;;;;;;16.75;13.00;;;;;21.21;36.84;103138.00;5057250;28;45186;-50
2021/12/17 03:30:23;;;;;;;;;12.25;11.50;;;;;21.19;36.68;103127.50;5057195;28;45309;-55
2021/12/17 03:32:48;;;;;;;;;12.75;9.00;;;;;21.18;36.53;103125.75;5057424;28;45502;-52
2021/12/17 03:35:14;;;;;;;;;13.50;11.25;;;;;21.19;36.15;103143.31;5057083;28;46441;-55
2021/12/17 03:37:42;;;;;;;;;11.00;11.00;;;;;21.14;36.77;103134.63;5057400;28;45232;-55
2021/12/17 03:40:08;;;;;;;;;12.25;11.50;;;;;21.16;36.68;103140.75;5057418;28;45318;-52
2021/12/17 03:42:33;;;;;;;;;12.50;11.50;;;;;21.16;36.49;103143.38;5057245;28;45618;-54
2021/12/17 03:44:58;;;;;;;;;11.00;10.25;;;;;21.14;36.44;103142.53;5056791;28;46105;-51
2021/12/17 03:47:24;;;;;;;;;12.00;10.25;;;;;21.14;36.73;103150.44;5056730;28;45343;-54
2021/12/17 03:49:49;;;;;;;;;12.75;11.75;;;;;21.13;36.71;103143.44;5056876;28;45379;-53
2021/12/17 03:52:16;;;;;;;;;15.25;12.00;;;;;21.11;36.44;103145.28;5057066;28;45475;-49
2021/12/17 03:54:42;;;;;;;;;13.75;12.00;;;;;21.12;36.47;103146.97;5056686;28;45276;-50
2021/12/17 03:57:11;;;;;;;;;17.00;14.00;;;;;21.10;36.62;103147.03;5056256;28;45714;-51
2021/12/17 03:59:37;;;;;;;;;16.25;12.00;;;;;21.09;36.58;103142.66;5057223;28;45370;-56
2021/12/17 04:02:03;;;;;;;;;14.50;12.75;;;;;21.07;36.59;103149.72;5056787;28;45592;-53
2021/12/17 04:04:28;;;;;;;;;14.25;11.50;;;;;21.08;36.26;103147.97;5056596;28;45358;-55
2021/12/17 04:06:54;;;;;;;;;13.75;12.25;;;;;21.07;36.83;103149.72;5056479;28;45377;-55
2021/12/17 04:09:21;;;;;;;;;13.50;10.75;;;;;21.07;36.64;103148.84;5056608;28;45398;-54
2021/12/17 04:11:47;;;;;;;;;16.50;11.00;;;;;21.05;36.39;103145.38;5056768;28;45594;-52
2021/12/17 04:14:13;;;;;;;;;14.00;12.50;;;;;21.06;36.30;103141.84;5056462;28;46452;-48
2021/12/17 04:16:38;;;;;;;;;11.75;10.75;;;;;21.05;36.37;103142.75;5056745;28;45313;-50
2021/12/17 04:19:04;;;;;;;;;14.00;12.00;;;;;21.04;36.83;103144.53;5056668;28;45556;-48
2021/12/17 04:21:30;;;;;;;;;12.00;9.50;;;;;21.04;36.52;103141.00;5038550;28;45245;-50
2021/12/17 04:23:56;;;;;;;;;12.25;12.25;;;;;21.01;36.75;103134.88;5056312;28;46758;-49
2021/12/17 04:26:24;;;;;;;;;11.50;11.00;;;;;21.06;36.35;103141.84;5056317;28;45464;-49
2021/12/17 04:28:51;;;;;;;;;10.75;10.00;;;;;21.07;36.97;103140.94;5056426;28;45423;-49
2021/12/17 04:31:20;;;;;;;;;10.00;10.00;;;;;21.07;36.89;103133.88;5056494;28;45541;-46
2021/12/17 04:33:46;;;;;;;;;8.50;5.75;;;;;21.11;37.08;103135.56;5056145;28;46509;-45
2021/12/17 04:36:15;;;;;;;;;9.75;9.75;;;;;21.15;36.85;103139.91;5056502;28;45865;-48
2021/12/17 04:38:41;;;;;;;;;9.75;8.50;;;;;21.20;36.90;103138.91;5041768;28;45430;-52
2021/12/17 04:44:13;;;;;;;;;10.50;10.50;;;;;21.28;36.89;103132.56;5059606;28;45887;-51
2021/12/17 04:57:33;;;;;;;;;10.50;10.50;;;;;21.50;36.90;103132.09;5059584;28;45325;-55
2021/12/17 05:00:13;;;;;;;;;10.75;10.75;;;;;21.53;36.84;103133.78;5059483;28;45469;-55
2021/12/17 05:02:45;;;;;;;;;13.00;10.00;;;;;21.57;36.40;103135.44;5060159;28;45601;-53
2021/12/17 05:05:12;;;;;;;;;9.25;8.50;;;;;21.60;36.54;103132.78;5059763;28;47125;-53
2021/12/17 05:07:43;;;;;;;;;15.25;10.00;;;;;21.64;36.59;103129.16;5059230;28;45465;-53
2021/12/17 05:23:05;;;;;;;;;10.50;9.25;;;;;21.68;36.09;103124.66;5059486;28;45545;-56
2021/12/17 05:25:31;;;;;;;;;10.25;10.25;;;;;21.72;36.30;103131.59;5059046;28;45382;-56
2021/12/17 05:28:00;;;;;;;;;11.50;9.00;;;;;21.72;36.46;103135.09;5059115;28;45324;-56
2021/12/17 05:30:28;;;;;;;;;10.00;8.00;;;;;21.71;36.43;103129.88;5059091;28;45459;-56
2021/12/17 05:32:54;;;;;;;;;10.00;9.00;;;;;21.69;36.48;103135.19;5059319;28;45351;-54
2021/12/17 05:35:19;;;;;;;;;9.25;9.25;;;;;21.70;36.40;103133.41;5058877;28;46091;-56
2021/12/17 05:37:45;;;;;;;;;11.25;8.50;;;;;21.71;36.57;103132.50;5059238;28;45410;-55
2021/12/17 05:40:11;;;;;;;;;12.50;9.75;;;;;21.69;36.33;103134.31;5058957;28;45437;-56
2021/12/17 05:42:36;;;;;;;;;6.75;6.75;;;;;21.69;36.45;103126.41;5059266;28;45241;-56
2021/12/17 05:45:09;;;;;;;;;6.00;6.00;;;;;21.69;36.02;103121.13;5058634;28;45306;-55
2021/12/17 05:47:34;;;;;;;;;8.75;7.25;;;;;21.68;36.43;103122.03;5058928;28;45325;-55
2021/12/17 05:49:59;;;;;;;;;16.00;15.00;;;;;21.67;36.14;103128.19;5057526;28;45333;-54
2021/12/17 05:52:25;;;;;;;;;12.75;12.75;;;;;21.62;36.19;103130.94;5058884;28;45327;-55
2021/12/17 05:54:50;;;;;;;;;14.00;12.75;;;;;21.57;36.13;103124.91;5058507;28;45345;-56
2021/12/17 05:57:15;;;;;;;;;16.25;14.00;;;;;21.49;36.05;103121.59;5058792;28;45398;-56
2021/12/17 05:59:41;;;;;;;;;15.50;13.50;;;;;21.45;36.16;103119.00;5040378;28;45463;-56
2021/12/17 06:02:10;;;;;;;;;15.50;13.75;;;;;21.42;35.94;103123.50;5058761;28;45676;-56
2021/12/17 06:04:36;;;;;;;;;13.75;13.00;;;;;21.38;35.74;103120.06;5058305;28;45477;-56
2021/12/17 06:07:02;;;;;;;;;16.00;15.00;;;;;21.34;36.01;103117.50;5058284;28;45471;-52
2021/12/17 06:09:27;;;;;;;;;16.00;11.50;;;;;21.30;36.16;103114.94;5040304;28;45363;-54
2021/12/17 06:11:52;;;;;;;;;10.50;10.50;;;;;21.25;36.28;103121.22;5058419;28;45308;-50
2021/12/17 06:14:18;;;;;;;;;12.00;10.25;;;;;21.21;35.90;103123.06;5058174;28;45286;-52
2021/12/17 06:16:43;;;;;;;;;13.25;13.25;;;;;21.17;36.09;103113.47;5058526;28;45362;-56
2021/12/17 06:19:09;;;;;;;;;12.75;11.25;;;;;21.11;36.58;103126.81;5058469;28;45249;-56
2021/12/17 06:21:34;;;;;;;;;15.25;11.50;;;;;21.07;36.20;103117.22;5058504;28;45325;-54
2021/12/17 06:24:00;;;;;;;;;11.25;11.25;;;;;21.01;36.36;103119.06;5057931;28;51523;-55
2021/12/17 06:26:25;;;;;;;;;15.25;15.00;;;;;20.94;36.57;103128.03;5058139;28;45484;-56
2021/12/17 06:28:50;;;;;;;;;14.25;11.75;;;;;20.88;36.42;103114.97;5058301;28;45403;-55
2021/12/17 06:31:20;;;;;;;;;15.00;10.00;;;;;20.82;36.48;103125.63;5058510;28;45352;-49
2021/12/17 06:33:47;;;;;;;;;16.50;13.50;;;;;20.78;36.58;103122.19;5058262;28;45792;-54
2021/12/17 06:36:12;;;;;;;;;14.25;12.25;;;;;20.75;36.69;103127.53;5057834;28;45381;-53
2021/12/17 06:38:37;;;;;;;;;13.25;12.50;;;;;20.74;36.66;103135.44;5057975;28;45386;-55
2021/12/17 06:41:03;;;;;;;;;13.25;12.25;;;;;20.67;36.68;103132.03;5057988;28;45312;-55
2021/12/17 06:43:36;;;;;;;;;13.50;10.25;;;;;20.63;36.98;103138.25;5057674;28;46412;-54
2021/12/17 06:46:17;;;;;;;;;16.00;14.75;;;;;20.55;36.51;103135.81;5057561;28;45835;-52
2021/12/17 06:48:43;;;;;;;;;15.25;13.25;;;;;20.48;37.40;103134.16;5057837;28;45306;-45
2021/12/17 06:59:44;;;;;;;;;19.25;14.50;;;;;20.31;37.00;103132.72;5057866;28;45510;-52
2021/12/17 07:23:49;;;;;;;;;14.25;11.25;;;;;20.25;37.52;103143.34;5057423;28;45357;-48
2021/12/17 07:34:08;;;;;;;;;12.75;11.00;;;;;20.18;37.89;103146.97;5057309;28;45402;-52
2021/12/17 07:36:56;;;;;;;;;11.25;11.25;;;;;20.19;37.79;103154.00;5056804;28;45420;-48
2021/12/17 07:39:22;;;;;;;;;11.75;11.75;;;;;20.19;38.20;103146.09;5057053;28;45715;-51
2021/12/17 07:41:47;;;;;;;;;12.00;11.25;;;;;20.19;37.93;103143.47;5057460;28;45366;-50
2021/12/17 07:44:13;;;;;;;;;11.00;11.00;;;;;20.18;37.94;103149.63;5057162;28;45304;-48
2021/12/17 07:46:38;;;;;;;;;15.00;12.00;;;;;20.18;37.98;103153.09;5056549;28;46279;-52
2021/12/17 07:49:04;;;;;;;;;10.25;10.25;;;;;20.20;37.75;103150.47;5056799;28;45447;-47
2021/12/17 07:51:29;;;;;;;;;12.25;8.50;;;;;20.19;37.64;103152.22;5056746;28;45533;-53
2021/12/17 07:53:56;;;;;;;;;14.00;12.75;;;;;20.21;37.57;103152.22;5057076;28;45570;-53
2021/12/17 07:56:25;;;;;;;;;11.50;10.25;;;;;20.20;37.77;103153.94;5056871;28;45429;-52
2021/12/17 07:58:51;;;;;;;;;13.25;10.75;;;;;20.21;37.73;103152.22;5038891;28;45801;-47
2021/12/17 08:01:16;;;;;;;;;13.50;9.75;;;;;20.18;37.34;103146.97;5056725;28;45676;-54
2021/12/17 08:03:42;;;;;;;;;16.00;8.50;;;;;20.19;37.95;103151.34;5056802;28;45311;-51
2021/12/17 08:06:08;;;;;;;;;11.25;8.50;;;;;20.18;38.06;103147.84;5056484;28;45434;-54
2021/12/17 08:08:35;;;;;;;;;10.25;8.25;;;;;20.18;38.08;103145.19;5056354;28;45350;-50
2021/12/17 08:11:00;;;;;;;;;11.75;10.25;;;;;20.17;38.01;103138.22;5056472;28;45363;-56
2021/12/17 08:13:30;;;;;;;;;10.00;10.00;;;;;20.15;37.43;103139.13;5054571;28;45566;-54
2021/12/17 08:26:38;;;;;;;;;15.00;12.00;;;;;20.07;38.08;103160.31;5056699;28;45442;-49
2021/12/17 08:31:32;;;;;;;;;10.75;9.50;;;;;20.05;37.91;103162.13;5055924;28;45256;-51
2021/12/17 08:33:58;;;;;;;;;18.00;12.75;;;;;20.05;37.84;103170.88;5056524;28;45580;-53
2021/12/17 08:36:24;;;;;;;;;12.50;12.50;;;;;20.04;38.15;103168.28;5056502;28;45397;-49
2021/12/17 08:38:50;;;;;;;;;13.50;11.50;;;;;20.04;38.08;103163.03;5056415;28;45282;-46
2021/12/17 08:41:16;;;;;;;;;12.75;11.75;;;;;20.05;37.72;103168.25;5056353;28;45301;-52
2021/12/17 08:43:42;;;;;;;;;9.00;8.25;;;;;19.99;37.92;103157.84;5056414;28;45596;-47
2021/12/17 08:46:08;;;;;;;;;12.50;12.00;;;;;20.02;38.04;103170.06;5056013;28;45502;-51
2021/12/17 08:48:34;;;;;;;;;12.50;10.00;;;;;20.01;38.23;103152.53;5056128;28;45514;-46
2021/12/17 08:51:00;;;;;;;;;14.00;10.75;;;;;20.00;37.73;103164.84;5055876;28;45454;-51
2021/12/17 08:53:25;;;;;;;;;14.50;13.50;;;;;19.95;37.71;103166.66;5055526;28;45597;-46
2021/12/17 08:55:51;;;;;;;;;14.25;12.75;;;;;19.93;37.87;103157.91;5056106;28;45340;-47
2021/12/17 08:58:16;;;;;;;;;12.00;11.25;;;;;19.88;37.94;103151.88;5055951;28;45387;-50
2021/12/17 09:00:43;;;;;;;;;14.00;12.50;;;;;19.86;38.02;103157.13;5056015;28;45660;-52
2021/12/17 09:03:09;;;;;;;;;11.50;9.25;;;;;19.84;37.84;103168.56;5056089;28;45459;-49
2021/12/17 09:05:37;;;;;;;;;10.25;10.25;;;;;19.82;37.99;103157.19;5055828;28;46203;-49
2021/12/17 09:08:04;;;;;;;;;13.75;11.75;;;;;19.80;38.04;103172.13;5055662;28;45793;-48
2021/12/17 09:10:29;;;;;;;;;13.25;10.00;;;;;19.76;38.48;103164.28;5056094;28;45455;-49
2021/12/17 09:12:55;;;;;;;;;13.25;12.25;;;;;19.76;38.50;103171.28;5056415;28;45525;-52
2021/12/17 09:15:20;;;;;;;;;10.25;10.00;;;;;19.75;38.06;103174.81;5055544;28;45525;-46
2021/12/17 09:17:46;;;;;;;;;13.50;11.75;;;;;19.72;37.90;103169.63;5055655;28;45497;-46
2021/12/17 09:20:11;;;;;;;;;13.00;12.25;;;;;19.68;38.22;103174.03;5055826;28;45943;-48
2021/12/17 09:22:36;;;;;;;;;18.75;16.00;;;;;19.63;38.68;103181.13;5054694;28;45624;-51
2021/12/17 09:25:03;;;;;;;;;10.75;10.00;;;;;19.53;38.44;103174.28;5058934;28;46349;-52
2021/12/17 09:27:28;;;;;;;;;16.50;14.75;;;;;19.47;38.60;103183.97;5059096;28;45368;-49
2021/12/17 09:29:53;;;;;;;;;14.00;13.00;;;;;19.44;38.51;103189.28;5059445;28;45246;-51
2021/12/17 09:32:19;;;;;;;;;8.00;7.00;;;;;19.39;38.61;103193.72;5059200;28;45332;-50
2021/12/17 09:34:44;;;;;;;;;15.50;13.75;;;;;19.35;38.72;103199.91;5058822;28;46139;-54
2021/12/17 09:37:10;;;;;;;;;10.50;9.50;;;;;19.31;38.68;103196.44;5058943;28;45244;-54
2021/12/17 09:39:35;;;;;;;;;14.75;12.00;;;;;19.29;38.95;103186.84;5058905;28;45257;-55
2021/12/17 09:42:02;;;;;;;;;8.00;8.00;;;;;19.29;38.88;103195.59;5059152;28;45620;-53
2021/12/17 09:44:27;;;;;;;;;14.25;14.00;;;;;19.31;38.97;103203.47;5058650;28;47708;-51
2021/12/17 09:46:57;;;;;;;;;12.50;11.50;;;;;19.32;39.08;103199.97;5059045;28;45400;-54
2021/12/17 09:49:23;;;;;;;;;14.50;9.50;;;;;19.31;38.94;103211.38;5059176;28;45321;-57
2021/12/17 09:51:49;;;;;;;;;11.50;11.50;;;;;19.36;38.85;103209.53;5059069;28;45242;-54
2021/12/17 09:54:15;;;;;;;;;15.00;13.50;;;;;19.35;38.96;103215.69;5058686;28;46635;-55
2021/12/17 09:56:41;;;;;;;;;13.25;9.75;;;;;19.32;38.69;103218.38;5058809;28;45255;-54
2021/12/17 09:59:06;;;;;;;;;15.50;12.00;;;;;19.32;38.90;103213.13;5058806;28;45351;-54
2021/12/17 10:01:36;;;;;;;;;14.25;13.25;;;;;19.29;39.11;103207.88;5058819;28;45551;-55
2021/12/17 10:04:18;;;;;;;;;13.75;13.50;;;;;19.29;38.99;103213.16;5058291;28;46117;-52
2021/12/17 10:06:45;;;;;;;;;10.50;10.50;;;;;19.29;38.82;103208.75;5058222;28;45474;-53
2021/12/17 10:09:10;;;;;;;;;12.00;12.00;;;;;19.28;38.93;103219.28;5058532;28;45312;-52
2021/12/17 10:11:37;;;;;;;;;13.25;13.25;;;;;19.23;38.83;103207.97;5058357;28;45617;-55
2021/12/17 10:14:23;;;;;;;;;12.75;12.00;;;;;19.20;39.30;103208.00;5040228;28;48871;-53
2021/12/17 10:16:49;;;;;;;;;12.25;11.25;;;;;19.21;39.00;103204.50;5058489;28;45776;-55
2021/12/17 10:19:43;;;;;;;;;11.00;10.00;;;;;19.23;38.99;103197.47;5058479;28;45391;-54
2021/12/17 10:22:10;;;;;;;;;15.75;12.75;;;;;19.23;38.99;103195.69;5058508;28;45404;-56
2021/12/17 10:24:38;;;;;;;;;12.00;12.00;;;;;19.26;39.22;103186.88;5058065;28;47072;-55
2021/12/17 10:27:28;;;;;;;;;11.75;10.25;;;;;19.28;39.30;103187.75;5058108;28;45885;-55
2021/12/17 10:29:54;;;;;;;;;14.75;13.75;;;;;19.27;38.93;103181.63;5058277;28;45231;-55
2021/12/17 10:32:22;;;;;;;;;12.50;11.75;;;;;19.30;38.79;103178.06;5058261;28;45695;-55
2021/12/17 10:35:01;;;;;;;;;13.25;12.25;;;;;19.29;39.02;103178.97;5057411;28;45332;-56
2021/12/17 10:37:33;;;;;;;;;13.50;12.50;;;;;19.28;39.01;103178.09;5040170;28;45826;-55
2021/12/17 10:39:59;;;;;;;;;18.00;15.00;;;;;19.27;39.27;103176.38;5058366;28;45304;-50
2021/12/17 10:42:37;;;;;;;;;14.25;9.00;;;;;19.28;39.16;103166.69;5058223;28;45441;-55
2021/12/17 10:45:10;;;;;;;;;15.00;15.00;;;;;19.29;38.89;103171.94;5057678;28;46250;-52
2021/12/17 10:47:37;;;;;;;;;18.50;14.50;;;;;19.24;39.27;103163.25;5057780;28;45442;-55
2021/12/17 10:50:03;;;;;;;;;14.00;11.50;;;;;19.25;39.22;103164.09;5058032;28;45241;-54
2021/12/17 10:52:38;;;;;;;;;10.00;10.00;;;;;19.22;39.31;103162.38;5058160;28;45166;-50
2021/12/17 10:55:16;;;;;;;;;14.00;13.00;;;;;19.24;38.94;103151.84;5057513;28;46672;-48
2021/12/17 10:57:43;;;;;;;;;12.00;10.25;;;;;19.25;39.07;103149.22;5057905;28;45961;-50
2021/12/17 11:00:10;;;;;;;;;12.25;11.50;;;;;19.26;38.73;103136.94;5057787;28;45432;-53
2021/12/17 11:02:37;;;;;;;;;16.75;15.25;;;;;19.28;39.18;103132.53;5057847;28;45363;-50
2021/12/17 11:05:14;;;;;;;;;13.25;12.50;;;;;19.27;38.84;103122.88;5057483;28;46495;-47
2021/12/17 11:07:43;;;;;;;;;13.75;12.00;;;;;19.26;39.15;103124.66;5039381;28;45799;-51
2021/12/17 11:10:08;;;;;;;;;16.25;15.00;;;;;19.26;39.00;103123.78;5057555;28;45394;-50
2021/12/17 11:12:42;;;;;;;;;17.00;15.75;;;;;19.23;38.82;103115.97;5057660;28;45502;-48
2021/12/17 11:15:07;;;;;;;;;15.25;13.50;;;;;19.24;39.00;103129.06;5057435;28;45520;-49
2021/12/17 11:17:33;;;;;;;;;9.25;9.00;;;;;19.20;39.34;103119.47;5057363;28;45514;-45
2021/12/17 11:20:03;;;;;;;;;12.00;12.00;;;;;19.15;39.06;103109.03;5057727;28;45362;-54
2021/12/17 11:22:30;;;;;;;;;15.25;14.25;;;;;19.20;38.84;103114.22;5057890;28;45463;-55
2021/12/17 11:24:58;;;;;;;;;12.25;12.25;;;;;19.18;38.85;103102.88;5057170;28;45454;-49
2021/12/17 11:27:24;;;;;;;;;20.50;14.75;;;;;19.16;38.80;103108.13;5057256;28;46022;-48
2021/12/17 11:29:50;;;;;;;;;21.50;16.75;;;;;19.13;39.26;103092.41;5057251;28;45415;-52
2021/12/17 11:32:18;;;;;;;;;21.75;17.25;;;;;19.09;38.83;103095.09;5039201;28;45392;-52
2021/12/17 11:34:44;;;;;;;;;15.00;14.25;;;;;19.14;39.48;103082.75;5057126;28;46637;-55
2021/12/17 11:37:11;;;;;;;;;17.50;17.00;;;;;19.18;39.26;103099.34;5056968;28;45233;-55
2021/12/17 11:39:43;;;;;;;;;16.25;14.25;;;;;19.21;39.11;103089.66;5039090;28;45297;-56
2021/12/17 11:42:33;;;;;;;;;13.75;13.75;;;;;19.26;38.71;103089.59;5039088;28;45346;-49
2021/12/17 11:47:46;;;;;;;;;19.00;16.25;;;;;19.31;38.90;103086.00;5055616;28;45422;-54
2021/12/17 11:50:14;;;;;;;;;16.75;15.75;;;;;19.39;38.78;103085.06;5056817;28;45420;-52
2021/12/17 11:52:39;;;;;;;;;13.50;12.50;;;;;19.47;38.89;103085.81;5039033;28;45292;-52
2021/12/17 11:55:20;;;;;;;;;14.00;9.33;;;;;19.58;38.70;103083.00;5056726;28;46439;-54
2021/12/17 11:57:46;;;;;;;;;13.00;10.50;;;;;19.67;39.01;103077.59;5056604;28;45950;-54
2021/12/17 12:00:15;;;;;;;;;11.25;10.25;;;;;19.77;38.67;103078.31;5038852;28;45391;-54
2021/12/17 12:02:47;;;;;;;;;12.00;11.25;;;;;19.89;38.75;103077.28;5057112;28;45572;-51
2021/12/17 12:05:34;;;;;;;;;7.75;7.75;;;;;19.97;38.30;103083.28;5056581;28;45316;-56
2021/12/17 12:08:24;;;;;;;;;8.50;8.50;;;;;20.08;38.73;103083.06;5056948;28;45415;-52
2021/12/17 12:11:07;;;;;;;;;17.00;10.50;;;;;20.13;38.81;103072.47;5056621;28;45901;-55
2021/12/17 12:13:38;;;;;;;;;12.50;9.25;;;;;20.23;38.63;103076.66;5057131;28;45335;-54
2021/12/17 12:16:06;;;;;;;;;10.00;9.00;;;;;20.29;38.77;103059.88;5056725;28;45286;-55
2021/12/17 12:18:43;;;;;;;;;7.50;7.50;;;;;20.36;38.33;103051.84;5038724;28;45327;-53
2021/12/17 12:21:10;;;;;;;;;9.75;7.75;;;;;20.41;38.68;103059.66;5056609;28;45430;-52
2021/12/17 12:23:41;;;;;;;;;9.25;6.50;;;;;20.48;38.11;103056.00;5056974;28;45335;-47
2021/12/17 12:26:11;;;;;;;;;9.50;8.75;;;;;20.53;37.96;103053.28;5056236;28;46845;-50
2021/12/17 12:28:43;;;;;;;;;7.25;7.25;;;;;20.59;38.47;103058.41;5038288;28;46014;-52
2021/12/17 12:31:08;;;;;;;;;8.50;7.50;;;;;20.63;37.79;103049.56;5056335;28;45379;-52
2021/12/17 12:33:33;;;;;;;;;9.00;9.00;;;;;20.65;38.06;103047.78;5056977;28;45459;-55
2021/12/17 12:35:59;;;;;;;;;11.50;8.25;;;;;20.71;38.12;103046.78;5056120;28;46513;-53
2021/12/17 12:38:31;;;;;;;;;11.25;8.00;;;;;20.76;37.71;103049.34;5056176;28;45409;-50
2021/12/17 12:41:00;;;;;;;;;14.25;12.00;;;;;20.81;37.68;103042.19;5056417;28;45398;-51
2021/12/17 12:43:35;;;;;;;;;11.50;9.25;;;;;20.83;38.02;103041.28;5056431;28;45529;-54
2021/12/17 12:46:01;;;;;;;;;8.25;8.25;;;;;20.88;37.99;103037.66;5056068;28;47460;-51
2021/12/17 12:48:38;;;;;;;;;7.25;7.25;;;;;20.93;38.11;103026.09;5056204;28;45427;-51
2021/12/17 12:51:21;;;;;;;;;9.50;7.00;;;;;20.98;38.09;103018.97;5056294;28;45273;-47
2021/12/17 12:54:04;;;;;;;;;9.75;7.75;;;;;21.03;37.97;103026.78;5056230;28;45250;-55
2021/12/17 12:56:30;;;;;;;;;14.25;9.75;;;;;21.07;37.59;103030.22;5055712;28;46257;-49
2021/12/17 12:58:56;;;;;;;;;9.25;9.00;;;;;21.13;37.87;103024.78;5057972;28;45339;-51
2021/12/17 13:01:21;;;;;;;;;9.25;7.25;;;;;21.16;37.86;103037.91;5041618;28;45326;-59
2021/12/17 13:03:48;;;;;;;;;13.00;9.50;;;;;21.19;37.76;103036.97;5059748;28;45370;-58
2021/12/17 13:06:17;;;;;;;;;9.25;7.75;;;;;21.18;37.90;103028.19;5041279;28;47835;-56
2021/12/17 13:08:44;;;;;;;;;13.00;8.00;;;;;21.23;37.90;103034.22;5041188;28;45363;-58
2021/12/17 13:11:09;;;;;;;;;5.00;4.75;;;;;21.25;37.58;103031.56;5041340;28;45328;-56
2021/12/17 13:14:17;;;;;;;;;7.50;6.25;;;;;21.30;37.34;103029.66;5060020;28;45261;-56
2021/12/17 13:21:58;;;;;;;;;13.00;10.00;;;;;21.38;37.68;103022.44;5059373;28;45173;-60
2021/12/17 13:24:26;;;;;;;;;9.75;8.00;;;;;21.39;37.49;103020.66;5059633;28;45329;-62
2021/12/17 13:27:06;;;;;;;;;8.25;7.00;;;;;21.42;37.25;103015.31;5059195;28;46337;-67
2021/12/17 13:29:37;;;;;;;;;7.75;6.75;;;;;21.43;37.49;103024.97;5059148;28;45917;-66
2021/12/17 13:32:09;;;;;;;;;10.00;7.75;;;;;21.45;37.73;103020.50;5059200;28;45276;-60
2021/12/17 13:34:44;;;;;;;;;9.00;9.00;;;;;21.44;37.04;103022.28;5059481;28;45478;-59
2021/12/17 13:37:21;;;;;;;;;9.00;8.00;;;;;21.43;37.59;103025.81;5059203;28;46401;-61
2021/12/17 13:39:55;;;;;;;;;6.25;6.25;;;;;21.43;37.29;103024.97;5041004;28;45398;-63
2021/12/17 13:42:33;;;;;;;;;9.75;7.00;;;;;21.40;37.35;103025.91;5059040;28;45340;-65
2021/12/17 13:44:59;;;;;;;;;9.50;6.50;;;;;21.40;37.37;103030.31;5059019;28;45513;-66
2021/12/17 13:47:31;;;;;;;;;7.00;5.25;;;;;21.39;37.21;103026.78;5058812;28;45288;-65
2021/12/17 13:50:12;;;;;;;;;7.00;6.00;;;;;21.37;37.43;103025.09;5058910;28;45493;-66
2021/12/17 13:52:45;;;;;;;;;6.50;6.00;;;;;21.35;37.29;103016.34;5059093;28;45357;-64
2021/12/17 13:55:13;;;;;;;;;9.25;8.00;;;;;21.34;37.26;103011.97;5040751;28;45443;-63
2021/12/17 13:57:41;;;;;;;;;8.50;6.75;;;;;21.33;37.30;103005.00;5058058;28;45421;-65
2021/12/17 14:00:23;;;;;;;;;8.75;7.75;;;;;21.32;37.22;103001.47;5058877;28;45960;-64
2021/12/17 14:02:52;;;;;;;;;14.25;9.00;;;;;21.31;37.24;103003.28;5058881;28;45443;-65
2021/12/17 14:05:25;;;;;;;;;7.50;6.50;;;;;21.29;37.05;102997.16;5058791;28;45202;-65
2021/12/17 14:07:52;;;;;;;;;7.00;7.00;;;;;21.28;37.30;102995.41;5040186;28;47564;-64
2021/12/17 14:10:21;;;;;;;;;8.00;6.00;;;;;21.27;37.10;102996.31;5057436;28;45312;-62
2021/12/17 14:12:48;;;;;;;;;9.00;6.50;;;;;21.25;36.90;102998.13;5040575;28;45288;-65
2021/12/17 14:15:18;;;;;;;;;10.50;5.75;;;;;21.24;37.16;102999.03;5058761;28;45458;-65
2021/12/17 14:17:47;;;;;;;;;10.50;8.00;;;;;21.23;37.25;102997.28;5058350;28;46243;-65
2021/12/17 14:20:18;;;;;;;;;9.50;7.25;;;;;21.22;37.00;102994.69;5058288;28;45553;-60
2021/12/17 14:22:47;;;;;;;;;7.00;5.00;;;;;21.21;37.06;102996.47;5058516;28;45549;-68
2021/12/17 14:25:33;;;;;;;;;8.50;7.00;;;;;21.20;37.21;103000.03;5058497;28;45354;-64
2021/12/17 14:28:25;;;;;;;;;7.25;6.50;;;;;21.19;37.14;103000.91;5058291;28;46655;-68
2021/12/17 14:30:58;;;;;;;;;8.00;7.00;;;;;21.18;37.28;102988.63;5039994;28;45831;-64
2021/12/17 14:33:31;;;;;;;;;8.50;7.25;;;;;21.16;37.39;102987.81;5058369;28;45294;-64